createdAt,value
2022-10-13T00:01:01.944Z,76718.47
2022-10-13T00:03:29.789Z,76716.41
2022-10-13T00:05:57.659Z,76720.50
2022-10-13T00:08:26.544Z,76747.00
2022-10-13T00:10:54.342Z,76771.47
2022-10-13T00:13:22.163Z,76759.25
2022-10-13T00:15:50.222Z,76761.28
2022-10-13T00:18:19.802Z,76759.25
2022-10-13T00:20:49.878Z,76749.03
2022-10-13T00:23:18.673Z,76765.34
2022-10-13T00:25:51.049Z,76777.59
2022-10-13T00:28:20.883Z,76783.72
2022-10-13T00:30:48.748Z,76787.78
2022-10-13T00:33:16.792Z,76785.75
2022-10-13T00:35:48.313Z,76787.78
2022-10-13T00:38:16.889Z,76777.59
2022-10-13T00:40:46.492Z,76771.47
2022-10-13T00:43:18.058Z,76767.41
2022-10-13T00:45:46.134Z,76761.28
2022-10-13T00:48:14.297Z,76755.16
2022-10-13T00:50:43.470Z,76763.31
2022-10-13T00:53:13.328Z,76759.25
2022-10-13T00:55:44.681Z,76763.31
2022-10-13T00:58:17.404Z,76767.41
2022-10-13T01:00:47.816Z,76763.31
2022-10-13T01:03:16.044Z,76767.41
2022-10-13T01:05:44.318Z,76779.63
2022-10-13T01:08:15.056Z,76785.75
2022-10-13T01:10:53.669Z,76787.78
2022-10-13T01:13:29.125Z,76783.72
2022-10-13T01:16:01.197Z,76781.66
2022-10-13T01:18:39.046Z,76781.66
2022-10-13T01:21:31.105Z,76804.09
2022-10-13T01:24:38.953Z,76804.09
2022-10-13T01:27:20.392Z,76804.09
2022-10-13T01:30:09.886Z,76808.19
2022-10-13T01:32:59.664Z,76810.22
2022-10-13T01:35:37.470Z,76804.09
2022-10-13T01:38:10.241Z,76793.91
2022-10-13T01:40:43.722Z,76791.88
2022-10-13T01:43:17.986Z,76787.78
2022-10-13T01:45:51.919Z,76791.88
2022-10-13T01:48:21.134Z,76783.72
2022-10-13T01:50:49.921Z,76781.66
2022-10-13T01:53:19.934Z,76773.50
2022-10-13T01:55:52.110Z,76771.47
2022-10-13T01:58:20.228Z,76763.31
2022-10-13T02:01:03.423Z,76757.19
2022-10-13T02:03:39.966Z,76761.28
2022-10-13T02:06:19.128Z,76744.97
2022-10-13T02:08:57.826Z,76736.81
2022-10-13T02:11:26.291Z,76734.78
2022-10-13T02:14:00.927Z,76726.63
2022-10-13T02:16:34.790Z,76718.47
2022-10-13T02:19:04.715Z,76710.31
2022-10-13T02:21:33.309Z,76712.34
2022-10-13T02:24:01.486Z,76710.31
2022-10-13T02:26:31.800Z,76702.16
2022-10-13T02:29:00.033Z,76694.00
2022-10-13T02:31:27.826Z,76694.00
2022-10-13T02:33:56.963Z,76689.91
2022-10-13T02:36:25.288Z,76691.94
2022-10-13T02:38:53.066Z,76689.91
2022-10-13T02:41:20.878Z,76689.91
2022-10-13T02:43:48.708Z,76687.88
2022-10-13T02:46:16.507Z,76681.75
2022-10-13T02:48:44.287Z,76679.72
2022-10-13T02:51:13.497Z,76677.69
2022-10-13T02:53:41.334Z,76673.59
2022-10-13T02:56:09.277Z,76673.59
2022-10-13T02:58:37.740Z,76673.59
2022-10-13T03:01:10.135Z,76665.44
2022-10-13T03:03:38.182Z,76669.53
2022-10-13T03:06:06.629Z,76685.81
2022-10-13T03:08:36.609Z,76681.75
2022-10-13T03:11:04.542Z,76677.69
2022-10-13T03:13:32.427Z,76673.59
2022-10-13T03:16:00.331Z,76663.41
2022-10-13T03:18:28.180Z,76663.41
2022-10-13T03:21:00.437Z,76661.38
2022-10-13T03:23:28.529Z,76669.53
2022-10-13T03:25:57.933Z,76665.44
2022-10-13T03:28:25.831Z,76661.38
2022-10-13T03:31:01.442Z,76667.47
2022-10-13T03:33:29.311Z,76661.38
2022-10-13T03:35:59.724Z,76669.53
2022-10-13T03:38:28.453Z,76667.47
2022-10-13T03:40:58.180Z,76655.25
2022-10-13T03:43:26.335Z,76653.19
2022-10-13T03:45:57.837Z,76640.97
2022-10-13T03:48:25.994Z,76643.00
2022-10-13T03:50:53.885Z,76640.97
2022-10-13T03:53:22.048Z,76634.84
2022-10-13T03:55:50.778Z,76630.78
2022-10-13T03:58:20.754Z,76628.72
2022-10-13T04:00:48.971Z,76640.97
2022-10-13T04:03:17.672Z,76647.09
2022-10-13T04:05:45.970Z,76645.03
2022-10-13T04:08:14.153Z,76630.78
2022-10-13T04:10:42.594Z,76632.81
2022-10-13T04:13:10.499Z,76620.56
2022-10-13T04:15:40.199Z,76624.66
2022-10-13T04:18:09.156Z,76624.66
2022-10-13T04:20:39.120Z,76612.41
2022-10-13T04:23:07.367Z,76614.47
2022-10-13T04:25:36.407Z,76620.56
2022-10-13T04:28:04.555Z,76612.41
2022-10-13T04:30:33.734Z,76616.50
2022-10-13T04:33:02.977Z,76604.28
2022-10-13T04:35:31.027Z,76604.28
2022-10-13T04:37:58.982Z,76604.28
2022-10-13T04:40:28.175Z,76592.03
2022-10-13T04:42:56.026Z,76592.03
2022-10-13T04:45:23.964Z,76592.03
2022-10-13T04:47:52.267Z,76583.88
2022-10-13T04:50:21.660Z,76583.88
2022-10-13T04:52:49.462Z,76581.84
2022-10-13T04:55:17.503Z,76579.78
2022-10-13T04:57:45.375Z,76583.88
2022-10-13T05:00:14.137Z,76579.78
2022-10-13T05:02:41.924Z,76575.72
2022-10-13T05:05:10.755Z,76579.78
2022-10-13T05:07:39.956Z,76577.75
2022-10-13T05:10:08.101Z,76579.78
2022-10-13T05:12:36.120Z,76579.78
2022-10-13T05:15:04.298Z,76571.63
2022-10-13T05:17:35.281Z,76575.72
2022-10-13T05:20:04.207Z,76575.72
2022-10-13T05:22:32.019Z,76577.75
2022-10-13T05:25:01.154Z,76575.72
2022-10-13T05:27:29.190Z,76567.56
2022-10-13T05:29:56.991Z,76561.44
2022-10-13T05:32:24.781Z,76563.47
2022-10-13T05:34:52.620Z,76561.44
2022-10-13T05:37:22.435Z,76555.31
2022-10-13T05:39:50.506Z,76563.47
2022-10-13T05:42:20.565Z,76557.38
2022-10-13T05:44:48.571Z,76551.25
2022-10-13T05:47:16.386Z,76549.22
2022-10-13T05:49:44.225Z,76547.16
2022-10-13T05:52:13.627Z,76539.00
2022-10-13T05:54:44.351Z,76532.91
2022-10-13T05:57:17.291Z,76526.78
2022-10-13T05:59:50.214Z,76524.75
2022-10-13T06:02:20.121Z,76526.78
2022-10-13T06:04:51.923Z,76524.75
2022-10-13T06:07:19.953Z,76518.63
2022-10-13T06:09:47.919Z,76516.59
2022-10-13T06:12:15.730Z,76518.63
2022-10-13T06:14:43.650Z,76518.63
2022-10-13T06:17:12.926Z,76522.69
2022-10-13T06:19:40.900Z,76518.63
2022-10-13T06:22:08.954Z,76510.47
2022-10-13T06:24:36.793Z,76502.31
2022-10-13T06:27:04.804Z,76506.38
2022-10-13T06:29:33.438Z,76502.31
2022-10-13T06:32:01.208Z,76496.19
2022-10-13T06:34:30.343Z,76496.19
2022-10-13T06:36:58.187Z,76492.13
2022-10-13T06:39:26.623Z,76488.03
2022-10-13T06:41:55.380Z,76477.84
2022-10-13T06:44:23.250Z,76479.88
2022-10-13T06:46:51.034Z,76486.00
2022-10-13T06:49:19.467Z,76483.97
2022-10-13T06:51:48.677Z,76477.84
2022-10-13T06:54:16.686Z,76473.75
2022-10-13T06:56:44.847Z,76475.81
2022-10-13T06:59:12.781Z,76473.75
2022-10-13T07:01:41.851Z,76469.69
2022-10-13T07:04:09.902Z,76467.66
2022-10-13T07:06:37.760Z,76465.63
2022-10-13T07:09:07.628Z,76457.44
2022-10-13T07:11:35.818Z,76461.53
2022-10-13T07:14:03.697Z,76457.44
2022-10-13T07:16:31.633Z,76449.28
2022-10-13T07:18:59.519Z,76445.22
2022-10-13T07:21:27.478Z,76441.16
2022-10-13T07:23:55.280Z,76441.16
2022-10-13T07:26:24.618Z,76439.09
2022-10-13T07:28:52.505Z,76428.91
2022-10-13T07:31:21.809Z,76424.84
2022-10-13T07:33:51.063Z,76426.88
2022-10-13T07:36:19.774Z,76424.84
2022-10-13T07:38:47.635Z,76416.69
2022-10-13T07:41:16.469Z,76406.47
2022-10-13T07:43:45.946Z,76388.13
2022-10-13T07:46:14.820Z,76388.13
2022-10-13T07:48:42.994Z,76375.91
2022-10-13T07:51:13.823Z,76367.75
2022-10-13T07:53:42.586Z,76367.75
2022-10-13T07:56:12.722Z,76361.63
2022-10-13T07:58:42.990Z,76357.53
2022-10-13T08:01:12.791Z,76343.28
2022-10-13T08:03:44.152Z,76345.31
2022-10-13T08:06:15.304Z,76339.19
2022-10-13T08:08:43.163Z,76335.13
2022-10-13T08:11:16.635Z,76331.03
2022-10-13T08:13:48.835Z,76326.97
2022-10-13T08:16:18.428Z,76324.91
2022-10-13T08:18:46.354Z,76318.81
2022-10-13T08:21:45.876Z,76318.81
2022-10-13T08:24:06.076Z,76308.59
2022-10-13T08:26:34.398Z,76306.56
2022-10-13T08:29:20.162Z,76310.66
2022-10-13T08:31:51.213Z,76306.56
2022-10-13T08:34:19.190Z,76300.47
2022-10-13T08:36:47.343Z,76298.41
2022-10-13T08:39:15.521Z,76294.34
2022-10-13T08:41:45.067Z,76290.25
2022-10-13T08:47:16.806Z,76282.09
2022-10-13T08:49:46.320Z,76276.00
2022-10-13T08:52:19.320Z,76278.03
2022-10-13T08:54:47.626Z,76269.88
2022-10-13T08:57:15.742Z,76259.69
2022-10-13T08:59:43.625Z,76257.63
2022-10-13T09:02:15.541Z,76259.69
2022-10-13T09:04:49.327Z,76259.69
2022-10-13T09:07:20.751Z,76245.41
2022-10-13T09:09:52.633Z,76245.41
2022-10-13T09:12:24.171Z,76241.31
2022-10-13T09:14:59.431Z,76229.09
2022-10-13T09:17:31.266Z,76227.06
2022-10-13T09:20:02.085Z,76227.06
2022-10-13T09:22:31.460Z,76212.78
2022-10-13T09:25:19.675Z,76204.63
2022-10-13T09:27:49.993Z,76200.56
2022-10-13T09:30:29.480Z,76196.47
2022-10-13T09:33:15.536Z,76194.44
2022-10-13T09:35:45.278Z,76186.28
2022-10-13T09:38:16.454Z,76184.25
2022-10-13T09:40:56.685Z,76169.97
2022-10-13T09:43:30.424Z,76155.69
2022-10-13T09:45:59.570Z,76165.88
2022-10-13T09:48:31.065Z,76155.69
2022-10-13T09:50:59.299Z,76151.63
2022-10-13T09:53:32.394Z,76143.47
2022-10-13T09:56:15.393Z,76127.16
2022-10-13T09:58:49.473Z,76119.00
2022-10-13T10:01:23.169Z,76121.03
2022-10-13T10:03:53.038Z,76108.81
2022-10-13T10:06:24.054Z,76106.75
2022-10-13T10:09:04.276Z,76090.44
2022-10-13T10:11:38.586Z,76086.38
2022-10-13T10:14:16.393Z,76082.28
2022-10-13T10:16:47.626Z,76070.06
2022-10-13T10:19:23.319Z,76063.94
2022-10-13T10:21:58.432Z,76049.69
2022-10-13T10:24:33.273Z,76037.44
2022-10-13T10:27:04.665Z,76045.59
2022-10-13T10:29:44.833Z,76025.22
2022-10-13T10:32:26.267Z,76000.75
2022-10-13T10:35:00.883Z,75992.59
2022-10-13T10:37:45.601Z,75984.44
2022-10-13T10:40:27.053Z,75984.44
2022-10-13T10:43:11.928Z,75968.13
2022-10-13T10:45:41.029Z,75955.91
2022-10-13T10:48:19.242Z,75949.78
2022-10-13T10:50:49.345Z,75927.34
2022-10-13T10:53:25.790Z,75878.44
2022-10-13T10:55:57.161Z,75862.13
2022-10-13T10:58:31.221Z,75825.41
2022-10-13T11:01:06.748Z,75813.19
2022-10-13T11:03:44.549Z,75784.66
2022-10-13T11:06:26.665Z,75739.81
2022-10-13T11:08:55.655Z,75711.25
2022-10-13T11:11:40.077Z,75711.25
2022-10-13T11:14:31.931Z,75682.72
2022-10-13T11:17:19.368Z,75682.72
2022-10-13T11:19:49.165Z,75662.34
2022-10-13T11:22:26.562Z,75650.09
2022-10-13T11:24:59.634Z,75633.78
2022-10-13T11:27:42.569Z,75641.94
2022-10-13T11:30:42.836Z,75625.63
2022-10-13T11:33:50.191Z,75621.56
2022-10-13T11:37:01.404Z,75623.59
2022-10-13T11:39:52.571Z,75625.63
2022-10-13T11:42:36.058Z,75654.19
2022-10-13T11:45:14.191Z,75648.06
2022-10-13T11:48:03.838Z,75637.88
2022-10-13T11:50:40.505Z,75625.63
2022-10-13T11:53:16.242Z,75613.41
2022-10-13T11:55:53.026Z,75633.78
2022-10-13T11:58:22.534Z,75625.63
2022-10-13T12:00:52.394Z,75613.41
2022-10-13T12:03:27.055Z,75639.91
2022-10-13T12:05:59.155Z,75650.09
2022-10-13T12:08:29.162Z,75648.06
2022-10-13T12:11:00.166Z,75621.56
2022-10-13T12:13:31.500Z,75584.88
2022-10-13T12:16:03.202Z,75588.94
2022-10-13T12:18:34.838Z,75578.75
2022-10-13T12:21:05.619Z,75544.09
2022-10-13T12:23:34.017Z,75519.63
2022-10-13T12:26:04.826Z,75540.03
2022-10-13T12:28:47.959Z,75519.63
2022-10-13T12:31:20.829Z,75503.34
2022-10-13T12:33:54.464Z,75495.19
2022-10-13T12:36:29.349Z,75470.72
2022-10-13T12:39:02.333Z,75454.41
2022-10-13T12:41:33.687Z,75456.44
2022-10-13T12:44:05.577Z,75446.25
2022-10-13T12:46:42.223Z,75425.88
2022-10-13T12:49:16.160Z,75401.41
2022-10-13T12:51:45.936Z,75401.41
2022-10-13T12:54:20.907Z,75393.25
2022-10-13T12:56:55.260Z,75389.19
2022-10-13T12:59:25.482Z,75381.03
2022-10-13T13:01:55.758Z,75368.78
2022-10-13T13:04:33.164Z,75376.94
2022-10-13T13:07:02.572Z,75376.94
2022-10-13T13:09:31.987Z,75397.34
2022-10-13T13:12:23.767Z,75405.50
2022-10-13T13:14:55.001Z,75401.41
2022-10-13T13:17:52.811Z,75401.41
2022-10-13T13:20:25.657Z,75397.34
2022-10-13T13:22:53.505Z,75413.66
2022-10-13T13:25:21.377Z,75417.72
2022-10-13T13:27:51.281Z,75438.09
2022-10-13T13:30:22.099Z,75440.13
2022-10-13T13:32:50.789Z,75425.88
2022-10-13T13:35:19.198Z,75436.06
2022-10-13T13:37:50.551Z,75450.34
2022-10-13T13:40:20.568Z,75444.22
2022-10-13T13:42:49.857Z,75434.03
2022-10-13T13:45:19.167Z,75446.25
2022-10-13T13:47:47.310Z,75436.06
2022-10-13T13:50:18.114Z,75434.03
2022-10-13T13:52:46.115Z,75429.94
2022-10-13T13:55:14.009Z,75429.94
2022-10-13T13:57:43.178Z,75448.28
2022-10-13T14:00:14.886Z,75446.25
2022-10-13T14:02:43.643Z,75446.25
2022-10-13T14:05:12.409Z,75452.38
2022-10-13T14:07:40.560Z,75450.34
2022-10-13T14:10:10.788Z,75450.34
2022-10-13T14:12:39.059Z,75452.38
2022-10-13T14:15:08.006Z,75452.38
2022-10-13T14:17:37.189Z,75440.13
2022-10-13T14:20:05.862Z,75442.19
2022-10-13T14:22:33.651Z,75448.28
2022-10-13T14:25:01.530Z,75456.44
2022-10-13T14:27:30.831Z,75464.59
2022-10-13T14:29:58.694Z,75466.63
2022-10-13T14:32:26.633Z,75478.88
2022-10-13T14:34:55.773Z,75487.03
2022-10-13T14:37:26.697Z,75491.09
2022-10-13T14:39:56.925Z,75491.09
2022-10-13T14:42:24.721Z,75482.94
2022-10-13T14:44:52.524Z,75482.94
2022-10-13T14:47:20.633Z,75472.75
2022-10-13T14:49:48.671Z,75482.94
2022-10-13T14:52:17.956Z,75489.06
2022-10-13T14:54:46.014Z,75499.25
2022-10-13T14:57:15.898Z,75503.34
2022-10-13T14:59:44.015Z,75515.56
2022-10-13T15:02:13.014Z,75517.59
2022-10-13T15:04:41.021Z,75521.69
2022-10-13T15:07:09.252Z,75531.88
2022-10-13T15:09:53.290Z,75531.88
2022-10-13T15:12:26.286Z,75535.94
2022-10-13T15:14:54.154Z,75544.09
2022-10-13T15:17:21.949Z,75544.09
2022-10-13T15:19:49.968Z,75556.34
2022-10-13T15:22:18.005Z,75564.47
2022-10-13T15:24:47.353Z,75566.53
2022-10-13T15:27:15.167Z,75572.63
2022-10-13T15:29:43.075Z,75578.75
2022-10-13T15:32:12.878Z,75588.94
2022-10-13T15:34:40.750Z,75601.19
2022-10-13T15:37:08.966Z,75609.34
2022-10-13T15:39:36.750Z,75617.50
2022-10-13T15:42:06.807Z,75625.63
2022-10-13T15:44:57.367Z,75633.78
2022-10-13T15:47:22.523Z,75637.88
2022-10-13T15:49:50.388Z,75646.03
2022-10-13T15:52:18.557Z,75652.13
2022-10-13T15:54:47.015Z,75662.34
2022-10-13T15:57:16.192Z,75670.50
2022-10-13T15:59:43.994Z,75674.56
2022-10-13T16:02:11.810Z,75680.69
2022-10-13T16:04:39.659Z,75694.94
2022-10-13T16:07:07.510Z,75703.09
2022-10-13T16:09:35.319Z,75711.25
2022-10-13T16:12:03.191Z,75721.44
2022-10-13T16:14:32.572Z,75733.69
2022-10-13T16:17:00.417Z,75743.88
2022-10-13T16:19:28.351Z,75768.34
2022-10-13T16:21:56.196Z,75784.66
2022-10-13T16:27:34.861Z,75805.03
2022-10-13T16:30:04.187Z,75809.13
2022-10-13T16:32:32.062Z,75813.19
2022-10-13T16:34:59.838Z,75821.34
2022-10-13T16:37:27.750Z,75821.34
2022-10-13T16:39:55.581Z,75825.41
2022-10-13T16:42:23.454Z,75837.66
2022-10-13T16:44:51.331Z,75853.97
2022-10-13T16:47:20.662Z,75866.19
2022-10-13T16:49:48.778Z,75870.28
2022-10-13T16:52:16.588Z,75874.34
2022-10-13T16:54:44.403Z,75882.50
2022-10-13T16:57:12.299Z,75886.56
2022-10-13T16:59:40.162Z,75886.56
2022-10-13T17:02:07.992Z,75894.75
2022-10-13T17:04:37.231Z,75896.78
2022-10-13T17:07:05.044Z,75904.94
2022-10-13T17:09:32.828Z,75906.97
2022-10-13T17:12:00.700Z,75906.97
2022-10-13T17:14:28.510Z,75915.13
2022-10-13T17:16:57.896Z,75915.13
2022-10-13T17:19:26.577Z,75919.19
2022-10-13T17:21:55.769Z,75923.28
2022-10-13T17:24:23.560Z,75921.25
2022-10-13T17:26:51.557Z,75917.16
2022-10-13T17:29:19.463Z,75923.28
2022-10-13T17:31:47.533Z,75927.34
2022-10-13T17:34:15.413Z,75931.44
2022-10-13T17:36:43.201Z,75935.50
2022-10-13T17:39:13.694Z,75939.59
2022-10-13T17:41:42.413Z,75943.66
2022-10-13T17:44:11.116Z,75947.75
2022-10-13T17:46:39.786Z,75941.63
2022-10-13T17:49:10.693Z,75943.66
2022-10-13T17:51:38.878Z,75949.78
2022-10-13T17:54:10.136Z,75945.69
2022-10-13T17:56:42.186Z,75935.50
2022-10-13T17:59:10.849Z,75935.50
2022-10-13T18:01:41.934Z,75939.59
2022-10-13T18:04:13.806Z,75951.81
2022-10-13T18:06:43.988Z,75947.75
2022-10-13T18:09:14.478Z,75953.84
2022-10-13T18:11:49.794Z,75968.13
2022-10-13T18:14:19.563Z,75972.22
2022-10-13T18:16:47.422Z,75982.41
2022-10-13T18:19:15.370Z,75984.44
2022-10-13T18:21:43.566Z,75984.44
2022-10-13T18:24:12.449Z,75986.47
2022-10-13T18:26:40.778Z,75988.50
2022-10-13T18:29:12.694Z,75996.66
2022-10-13T18:31:42.519Z,75992.59
2022-10-13T18:34:13.682Z,75996.66
2022-10-13T18:36:43.926Z,75998.72
2022-10-13T18:39:14.997Z,76000.75
2022-10-13T18:41:43.072Z,76004.81
2022-10-13T18:44:12.582Z,76008.91
2022-10-13T18:46:41.471Z,76002.78
2022-10-13T18:49:12.478Z,75998.72
2022-10-13T18:51:40.399Z,76008.91
2022-10-13T18:54:08.966Z,76008.91
2022-10-13T18:56:37.794Z,76012.97
2022-10-13T18:59:07.431Z,76025.22
2022-10-13T19:01:38.959Z,76031.31
2022-10-13T19:04:07.199Z,76033.38
2022-10-13T19:06:35.573Z,76025.22
2022-10-13T19:09:06.198Z,76033.38
2022-10-13T19:11:34.712Z,76037.44
2022-10-13T19:14:03.296Z,76037.44
2022-10-13T19:16:32.494Z,76035.41
2022-10-13T19:19:01.683Z,76043.56
2022-10-13T19:21:29.795Z,76045.59
2022-10-13T19:24:00.167Z,76051.72
2022-10-13T19:26:30.856Z,76049.69
2022-10-13T19:29:01.800Z,76057.84
2022-10-13T19:31:32.359Z,76061.91
2022-10-13T19:34:01.850Z,76063.94
2022-10-13T19:36:31.714Z,76066.00
2022-10-13T19:39:00.267Z,76072.09
2022-10-13T19:41:29.776Z,76070.06
2022-10-13T19:43:57.986Z,76080.25
2022-10-13T19:46:26.079Z,76088.41
2022-10-13T19:48:53.890Z,76098.59
2022-10-13T19:51:23.096Z,76094.53
2022-10-13T19:53:50.890Z,76110.84
2022-10-13T19:56:22.355Z,76110.84
2022-10-13T19:58:50.237Z,76102.69
2022-10-13T20:01:18.906Z,76106.75
2022-10-13T20:03:47.399Z,76114.91
2022-10-13T20:06:15.827Z,76106.75
2022-10-13T20:08:45.949Z,76110.84
2022-10-13T20:11:23.834Z,76106.75
2022-10-13T20:13:52.814Z,76114.91
2022-10-13T20:16:23.669Z,76106.75
2022-10-13T20:18:56.167Z,76112.88
2022-10-13T20:21:24.692Z,76110.84
2022-10-13T20:23:54.246Z,76114.91
2022-10-13T20:26:22.278Z,76114.91
2022-10-13T20:28:51.848Z,76119.00
2022-10-13T20:31:21.864Z,76114.91
2022-10-13T20:33:54.738Z,76135.31
2022-10-13T20:36:22.813Z,76143.47
2022-10-13T20:38:50.887Z,76157.72
2022-10-13T20:41:22.571Z,76155.69
2022-10-13T20:43:50.815Z,76145.50
2022-10-13T20:46:20.443Z,76149.56
2022-10-13T20:51:37.422Z,76147.53
2022-10-13T20:54:05.765Z,76143.47
2022-10-13T20:56:34.964Z,76147.53
2022-10-13T20:59:04.212Z,76161.81
2022-10-13T21:01:32.188Z,76165.88
2022-10-13T21:03:59.985Z,76176.09
2022-10-13T21:06:28.406Z,76184.25
2022-10-13T21:08:56.257Z,76172.00
2022-10-13T21:11:24.851Z,76176.09
2022-10-13T21:13:54.492Z,76180.16
2022-10-13T21:16:24.250Z,76188.31
2022-10-13T21:18:52.716Z,76178.13
2022-10-13T21:21:22.486Z,76182.19
2022-10-13T21:23:51.219Z,76184.25
2022-10-13T21:26:21.940Z,76180.16
2022-10-13T21:28:50.962Z,76180.16
2022-10-13T21:31:22.233Z,76186.28
2022-10-13T21:33:50.632Z,76188.31
2022-10-13T21:36:20.946Z,76190.34
2022-10-13T21:38:51.318Z,76204.63
2022-10-13T21:41:19.363Z,76206.66
2022-10-13T21:43:47.476Z,76208.69
2022-10-13T21:46:17.486Z,76200.56
2022-10-13T21:48:48.034Z,76200.56
2022-10-13T21:51:17.604Z,76202.59
2022-10-13T21:53:49.855Z,76204.63
2022-10-13T21:56:18.257Z,76212.78
2022-10-13T21:58:46.187Z,76216.84
2022-10-13T22:01:14.219Z,76218.91
2022-10-13T22:03:42.584Z,76212.78
2022-10-13T22:06:18.467Z,76212.78
2022-10-13T22:08:48.367Z,76212.78
2022-10-13T22:11:17.448Z,76216.84
2022-10-13T22:13:45.751Z,76216.84
2022-10-13T22:16:15.799Z,76218.91
2022-10-13T22:18:44.522Z,76220.94
2022-10-13T22:21:16.095Z,76212.78
2022-10-13T22:23:44.818Z,76214.81
2022-10-13T22:26:13.774Z,76216.84
2022-10-13T22:28:42.583Z,76233.16
2022-10-13T22:31:13.687Z,76241.31
2022-10-13T22:33:43.664Z,76237.25
2022-10-13T22:36:16.255Z,76239.28
2022-10-13T22:38:44.225Z,76245.41
2022-10-13T22:41:13.142Z,76235.22
2022-10-13T22:43:41.955Z,76229.09
2022-10-13T22:46:09.785Z,76225.00
2022-10-13T22:48:40.712Z,76241.31
2022-10-13T22:51:09.680Z,76241.31
2022-10-13T22:53:39.003Z,76251.53
2022-10-13T22:56:08.078Z,76257.63
2022-10-13T22:58:36.808Z,76257.63
2022-10-13T23:01:09.827Z,76249.47
2022-10-13T23:03:38.227Z,76237.25
2022-10-13T23:06:07.355Z,76241.31
2022-10-13T23:08:35.936Z,76247.44
2022-10-13T23:11:05.311Z,76247.44
2022-10-13T23:13:33.085Z,76249.47
2022-10-13T23:16:04.450Z,76263.75
2022-10-13T23:18:32.311Z,76261.72
2022-10-13T23:21:00.126Z,76257.63
2022-10-13T23:23:27.931Z,76265.78
2022-10-13T23:25:55.819Z,76265.78
2022-10-13T23:28:25.117Z,76257.63
2022-10-13T23:30:52.939Z,76253.56
2022-10-13T23:33:20.822Z,76257.63
2022-10-13T23:35:55.006Z,76265.78
2022-10-13T23:38:23.210Z,76269.88
2022-10-13T23:40:51.379Z,76282.09
2022-10-13T23:43:19.865Z,76280.06
2022-10-13T23:45:49.259Z,76273.94
2022-10-13T23:48:17.043Z,76267.84
2022-10-13T23:50:44.819Z,76267.84
2022-10-13T23:53:12.695Z,76267.84
2022-10-13T23:55:40.818Z,76269.88
2022-10-13T23:58:08.715Z,76267.84
